sensor_id;sensor_type;location;lat;lon;timestamp;pressure;altitude;pressure_sealevel;temperature;humidity
19795;BME280;10057;59.402;17.866;2022-08-21T00:02:22;100989.91;;;18.38;73.17
19795;BME280;10057;59.402;17.866;2022-08-21T00:04:49;100989.03;;;18.38;73.42
19795;BME280;10057;59.402;17.866;2022-08-21T00:07:23;100985.38;;;18.39;73.36
19795;BME280;10057;59.402;17.866;2022-08-21T00:09:52;100973.91;;;18.37;73.20
19795;BME280;10057;59.402;17.866;2022-08-21T00:12:22;100976.13;;;18.30;73.14
19795;BME280;10057;59.402;17.866;2022-08-21T00:14:48;100984.69;;;18.22;73.37
19795;BME280;10057;59.402;17.866;2022-08-21T00:17:20;100975.97;;;18.19;73.38
19795;BME280;10057;59.402;17.866;2022-08-21T00:19:46;100975.00;;;18.20;73.29
19795;BME280;10057;59.402;17.866;2022-08-21T00:22:13;100976.72;;;18.21;73.17
19795;BME280;10057;59.402;17.866;2022-08-21T00:24:40;100976.72;;;18.21;73.28
19795;BME280;10057;59.402;17.866;2022-08-21T00:27:06;100979.53;;;18.19;73.14
19795;BME280;10057;59.402;17.866;2022-08-21T00:29:33;100987.47;;;18.21;72.79
19795;BME280;10057;59.402;17.866;2022-08-21T00:32:00;100986.59;;;18.20;72.84
19795;BME280;10057;59.402;17.866;2022-08-21T00:34:27;100984.78;;;18.21;73.00
19795;BME280;10057;59.402;17.866;2022-08-21T00:36:54;100984.03;;;18.19;73.29
19795;BME280;10057;59.402;17.866;2022-08-21T00:39:20;100984.88;;;18.19;73.12
19795;BME280;10057;59.402;17.866;2022-08-21T00:41:47;100985.09;;;18.16;72.97
19795;BME280;10057;59.402;17.866;2022-08-21T00:44:15;100981.34;;;18.05;72.60
19795;BME280;10057;59.402;17.866;2022-08-21T00:46:42;100986.38;;;17.96;72.96
19795;BME280;10057;59.402;17.866;2022-08-21T00:49:10;100990.09;;;17.94;73.25
19795;BME280;10057;59.402;17.866;2022-08-21T00:51:45;100981.97;;;17.95;73.24
19795;BME280;10057;59.402;17.866;2022-08-21T00:54:17;100979.16;;;17.97;73.18
19795;BME280;10057;59.402;17.866;2022-08-21T00:56:51;100981.78;;;17.98;73.25
19795;BME280;10057;59.402;17.866;2022-08-21T00:59:21;100969.94;;;18.01;73.20
19795;BME280;10057;59.402;17.866;2022-08-21T01:01:49;100972.56;;;18.03;73.13
19795;BME280;10057;59.402;17.866;2022-08-21T01:04:18;100974.38;;;18.02;73.23
19795;BME280;10057;59.402;17.866;2022-08-21T01:06:45;100981.66;;;18.00;73.18
19795;BME280;10057;59.402;17.866;2022-08-21T01:09:13;100973.81;;;17.97;73.33
19795;BME280;10057;59.402;17.866;2022-08-21T01:11:40;100980.03;;;17.97;73.27
19795;BME280;10057;59.402;17.866;2022-08-21T01:14:11;100964.91;;;17.96;73.61
19795;BME280;10057;59.402;17.866;2022-08-21T01:16:43;100959.63;;;17.95;73.31
19795;BME280;10057;59.402;17.866;2022-08-21T01:19:10;100967.88;;;17.92;73.46
19795;BME280;10057;59.402;17.866;2022-08-21T01:21:37;100968.16;;;17.87;73.27
19795;BME280;10057;59.402;17.866;2022-08-21T01:24:06;100966.56;;;17.85;73.51
19795;BME280;10057;59.402;17.866;2022-08-21T01:26:34;100963.22;;;17.81;73.66
19795;BME280;10057;59.402;17.866;2022-08-21T01:29:06;100956.97;;;17.81;73.63
19795;BME280;10057;59.402;17.866;2022-08-21T01:31:34;100947.97;;;17.82;73.54
19795;BME280;10057;59.402;17.866;2022-08-21T01:34:01;100939.81;;;17.83;73.73
19795;BME280;10057;59.402;17.866;2022-08-21T01:36:27;100949.88;;;17.80;73.69
19795;BME280;10057;59.402;17.866;2022-08-21T01:38:55;100935.69;;;17.77;73.78
19795;BME280;10057;59.402;17.866;2022-08-21T01:41:21;100954.56;;;17.76;73.79
19795;BME280;10057;59.402;17.866;2022-08-21T01:43:51;100952.91;;;17.73;74.01
19795;BME280;10057;59.402;17.866;2022-08-21T01:46:17;100955.72;;;17.72;73.97
19795;BME280;10057;59.402;17.866;2022-08-21T01:48:44;100958.47;;;17.70;74.06
19795;BME280;10057;59.402;17.866;2022-08-21T01:51:11;100960.50;;;17.67;74.28
19795;BME280;10057;59.402;17.866;2022-08-21T01:53:38;100966.03;;;17.64;74.57
19795;BME280;10057;59.402;17.866;2022-08-21T01:56:14;100967.00;;;17.63;74.59
19795;BME280;10057;59.402;17.866;2022-08-21T01:58:43;100969.69;;;17.63;74.72
19795;BME280;10057;59.402;17.866;2022-08-21T02:01:13;100971.31;;;17.65;74.61
19795;BME280;10057;59.402;17.866;2022-08-21T02:03:40;100979.44;;;17.64;74.50
19795;BME280;10057;59.402;17.866;2022-08-21T02:06:11;100977.75;;;17.63;74.59
19795;BME280;10057;59.402;17.866;2022-08-21T02:08:38;100973.16;;;17.65;74.69
19795;BME280;10057;59.402;17.866;2022-08-21T02:11:05;100970.47;;;17.65;74.54
19795;BME280;10057;59.402;17.866;2022-08-21T02:13:31;100967.78;;;17.65;74.50
19795;BME280;10057;59.402;17.866;2022-08-21T02:15:58;100965.09;;;17.65;74.94
19795;BME280;10057;59.402;17.866;2022-08-21T02:18:25;100962.41;;;17.65;74.86
19795;BME280;10057;59.402;17.866;2022-08-21T02:20:52;100958.00;;;17.64;74.88
19795;BME280;10057;59.402;17.866;2022-08-21T02:23:23;100960.69;;;17.64;74.94
19795;BME280;10057;59.402;17.866;2022-08-21T02:25:54;100964.31;;;17.63;75.04
19795;BME280;10057;59.402;17.866;2022-08-21T02:28:21;100971.41;;;17.64;74.98
19795;BME280;10057;59.402;17.866;2022-08-21T02:30:48;100969.69;;;17.63;74.87
19795;BME280;10057;59.402;17.866;2022-08-21T02:33:15;100964.31;;;17.63;74.82
19795;BME280;10057;59.402;17.866;2022-08-21T02:35:44;100964.44;;;17.61;74.62
19795;BME280;10057;59.402;17.866;2022-08-21T02:38:14;100959.16;;;17.60;74.80
19795;BME280;10057;59.402;17.866;2022-08-21T02:40:44;100967.31;;;17.58;74.74
19795;BME280;10057;59.402;17.866;2022-08-21T02:43:17;100958.47;;;17.56;74.95
19795;BME280;10057;59.402;17.866;2022-08-21T02:45:45;100951.41;;;17.55;74.89
19795;BME280;10057;59.402;17.866;2022-08-21T02:48:15;100950.63;;;17.53;75.14
19795;BME280;10057;59.402;17.866;2022-08-21T02:50:45;100956.84;;;17.53;75.27
19795;BME280;10057;59.402;17.866;2022-08-21T02:53:13;100959.53;;;17.53;75.09
19795;BME280;10057;59.402;17.866;2022-08-21T02:55:47;100957.81;;;17.52;75.19
19795;BME280;10057;59.402;17.866;2022-08-21T02:58:19;100963.19;;;17.52;75.36
19795;BME280;10057;59.402;17.866;2022-08-21T03:00:46;100956.09;;;17.51;75.36
19795;BME280;10057;59.402;17.866;2022-08-21T03:03:13;100950.94;;;17.48;75.38
19795;BME280;10057;59.402;17.866;2022-08-21T03:05:42;100946.41;;;17.49;75.57
19795;BME280;10057;59.402;17.866;2022-08-21T03:08:10;100951.47;;;17.53;75.52
19795;BME280;10057;59.402;17.866;2022-08-21T03:10:40;100950.44;;;17.56;75.63
19795;BME280;10057;59.402;17.866;2022-08-21T03:13:07;100951.22;;;17.58;75.78
19795;BME280;10057;59.402;17.866;2022-08-21T03:15:34;100952.06;;;17.59;75.68
19795;BME280;10057;59.402;17.866;2022-08-21T03:18:02;100948.41;;;17.60;75.87
19795;BME280;10057;59.402;17.866;2022-08-21T03:20:29;100950.91;;;17.63;75.72
19795;BME280;10057;59.402;17.866;2022-08-21T03:22:59;100952.56;;;17.65;75.99
19795;BME280;10057;59.402;17.866;2022-08-21T03:25:27;100955.13;;;17.67;75.93
19795;BME280;10057;59.402;17.866;2022-08-21T03:28:09;100956.88;;;17.68;75.76
19795;BME280;10057;59.402;17.866;2022-08-21T03:30:39;100955.13;;;17.67;75.62
19795;BME280;10057;59.402;17.866;2022-08-21T03:33:06;100961.44;;;17.66;75.64
19795;BME280;10057;59.402;17.866;2022-08-21T03:35:32;100967.78;;;17.65;75.78
19795;BME280;10057;59.402;17.866;2022-08-21T03:37:59;100965.97;;;17.65;75.88
19795;BME280;10057;59.402;17.866;2022-08-21T03:40:25;100965.09;;;17.65;75.72
19795;BME280;10057;59.402;17.866;2022-08-21T03:42:52;100959.53;;;17.68;75.90
19795;BME280;10057;59.402;17.866;2022-08-21T03:45:20;100951.31;;;17.71;76.15
19795;BME280;10057;59.402;17.866;2022-08-21T03:48:02;100957.34;;;17.74;76.08
19795;BME280;10057;59.402;17.866;2022-08-21T03:50:31;100951.19;;;17.72;76.24
19795;BME280;10057;59.402;17.866;2022-08-21T03:53:00;100954.94;;;17.70;76.41
19795;BME280;10057;59.402;17.866;2022-08-21T03:55:27;100955.78;;;17.70;76.71
19795;BME280;10057;59.402;17.866;2022-08-21T03:57:54;100964.72;;;17.71;76.49
19795;BME280;10057;59.402;17.866;2022-08-21T04:00:23;100961.81;;;17.74;76.61
19795;BME280;10057;59.402;17.866;2022-08-21T04:02:50;100963.56;;;17.75;76.55
19795;BME280;10057;59.402;17.866;2022-08-21T04:05:18;100961.66;;;17.77;76.64
19795;BME280;10057;59.402;17.866;2022-08-21T04:07:55;100963.41;;;17.78;76.55
19795;BME280;10057;59.402;17.866;2022-08-21T04:10:22;100965.47;;;17.73;76.70
19795;BME280;10057;59.402;17.866;2022-08-21T04:12:52;100967.28;;;17.72;76.75
19795;BME280;10057;59.402;17.866;2022-08-21T04:15:20;100967.19;;;17.74;76.95
19795;BME280;10057;59.402;17.866;2022-08-21T04:17:47;100970.56;;;17.77;76.72
19795;BME280;10057;59.402;17.866;2022-08-21T04:20:16;100964.25;;;17.79;76.72
19795;BME280;10057;59.402;17.866;2022-08-21T04:22:42;100965.00;;;17.81;76.74
19795;BME280;10057;59.402;17.866;2022-08-21T04:25:12;100977.28;;;17.85;76.69
19795;BME280;10057;59.402;17.866;2022-08-21T04:27:39;100979.00;;;17.86;76.62
19795;BME280;10057;59.402;17.866;2022-08-21T04:30:07;100986.19;;;17.85;76.55
19795;BME280;10057;59.402;17.866;2022-08-21T04:32:36;100975.47;;;17.85;76.35
19795;BME280;10057;59.402;17.866;2022-08-21T04:35:06;100973.72;;;17.84;76.26
19795;BME280;10057;59.402;17.866;2022-08-21T04:37:35;100975.47;;;17.85;76.50
19795;BME280;10057;59.402;17.866;2022-08-21T04:40:09;100978.03;;;17.87;76.35
19795;BME280;10057;59.402;17.866;2022-08-21T04:42:45;100975.16;;;17.90;76.42
19795;BME280;10057;59.402;17.866;2022-08-21T04:45:21;100963.66;;;17.88;76.70
19795;BME280;10057;59.402;17.866;2022-08-21T04:47:53;100978.69;;;17.90;76.75
19795;BME280;10057;59.402;17.866;2022-08-21T04:50:23;100977.84;;;17.90;76.86
19795;BME280;10057;59.402;17.866;2022-08-21T04:52:51;100973.44;;;17.89;76.58
19795;BME280;10057;59.402;17.866;2022-08-21T04:55:18;100978.91;;;17.87;76.88
19795;BME280;10057;59.402;17.866;2022-08-21T04:57:46;100975.34;;;17.87;76.48
19795;BME280;10057;59.402;17.866;2022-08-21T05:00:16;100963.66;;;17.88;76.79
19795;BME280;10057;59.402;17.866;2022-08-21T05:02:45;100961.84;;;17.88;76.85
19795;BME280;10057;59.402;17.866;2022-08-21T05:05:14;100950.16;;;17.89;76.97
19795;BME280;10057;59.402;17.866;2022-08-21T05:07:42;100951.97;;;17.89;77.11
19795;BME280;10057;59.402;17.866;2022-08-21T05:10:12;100952.06;;;17.87;77.31
19795;BME280;10057;59.402;17.866;2022-08-21T05:12:41;100959.16;;;17.88;77.31
19795;BME280;10057;59.402;17.866;2022-08-21T05:15:11;100969.69;;;17.91;77.21
19795;BME280;10057;59.402;17.866;2022-08-21T05:17:41;100969.69;;;17.91;77.37
19795;BME280;10057;59.402;17.866;2022-08-21T05:20:11;100964.13;;;17.94;77.35
19795;BME280;10057;59.402;17.866;2022-08-21T05:22:38;100963.19;;;17.95;77.29
19795;BME280;10057;59.402;17.866;2022-08-21T05:25:07;100955.88;;;17.97;77.26
19795;BME280;10057;59.402;17.866;2022-08-21T05:27:37;100956.72;;;17.98;77.11
19795;BME280;10057;59.402;17.866;2022-08-21T05:30:07;100957.63;;;17.98;77.19
19795;BME280;10057;59.402;17.866;2022-08-21T05:32:34;100954.94;;;17.98;77.16
19795;BME280;10057;59.402;17.866;2022-08-21T05:35:03;100953.56;;;17.91;77.13
19795;BME280;10057;59.402;17.866;2022-08-21T05:37:30;100945.94;;;17.85;77.61
19795;BME280;10057;59.402;17.866;2022-08-21T05:39:57;100951.19;;;17.87;77.79
19795;BME280;10057;59.402;17.866;2022-08-21T05:42:44;100956.38;;;17.90;77.87
19795;BME280;10057;59.402;17.866;2022-08-21T05:45:22;100956.38;;;17.90;77.68
19795;BME280;10057;59.402;17.866;2022-08-21T05:50:38;100947.94;;;17.96;77.79
19795;BME280;10057;59.402;17.866;2022-08-21T05:53:05;100949.56;;;17.98;77.66
19795;BME280;10057;59.402;17.866;2022-08-21T05:55:33;100951.28;;;17.99;77.51
19795;BME280;10057;59.402;17.866;2022-08-21T05:57:59;100944.94;;;18.00;77.58
19795;BME280;10057;59.402;17.866;2022-08-21T06:00:27;100950.44;;;17.99;77.46
19795;BME280;10057;59.402;17.866;2022-08-21T06:02:53;100955.00;;;17.97;77.43
19795;BME280;10057;59.402;17.866;2022-08-21T06:05:20;100951.47;;;17.96;77.69
19795;BME280;10057;59.402;17.866;2022-08-21T06:08:03;100938.84;;;17.98;77.48
19795;BME280;10057;59.402;17.866;2022-08-21T06:10:30;100940.53;;;17.99;77.64
19795;BME280;10057;59.402;17.866;2022-08-21T06:12:57;100940.53;;;17.99;77.56
19795;BME280;10057;59.402;17.866;2022-08-21T06:15:24;100941.41;;;18.00;77.57
19795;BME280;10057;59.402;17.866;2022-08-21T06:17:52;100934.97;;;18.03;77.92
19795;BME280;10057;59.402;17.866;2022-08-21T06:20:19;100937.47;;;18.06;77.72
19795;BME280;10057;59.402;17.866;2022-08-21T06:22:46;100930.94;;;18.10;77.68
19795;BME280;10057;59.402;17.866;2022-08-21T06:25:12;100933.41;;;18.13;77.61
19795;BME280;10057;59.402;17.866;2022-08-21T06:27:39;100931.47;;;18.15;77.72
19795;BME280;10057;59.402;17.866;2022-08-21T06:30:06;100934.81;;;18.18;77.61
19795;BME280;10057;59.402;17.866;2022-08-21T06:32:34;100936.44;;;18.21;77.66
19795;BME280;10057;59.402;17.866;2022-08-21T06:35:00;100933.69;;;18.22;77.54
19795;BME280;10057;59.402;17.866;2022-08-21T06:37:27;100935.28;;;18.25;77.58
19795;BME280;10057;59.402;17.866;2022-08-21T06:39:54;100933.34;;;18.27;77.50
19795;BME280;10057;59.402;17.866;2022-08-21T06:42:21;100938.53;;;18.30;77.54
19795;BME280;10057;59.402;17.866;2022-08-21T06:44:53;100934.88;;;18.31;77.41
19795;BME280;10057;59.402;17.866;2022-08-21T06:47:20;100935.63;;;18.33;77.55
19795;BME280;10057;59.402;17.866;2022-08-21T06:49:47;100934.47;;;18.37;77.29
19795;BME280;10057;59.402;17.866;2022-08-21T06:52:15;100929.09;;;18.37;77.07
19795;BME280;10057;59.402;17.866;2022-08-21T06:54:42;100930.06;;;18.36;77.09
19795;BME280;10057;59.402;17.866;2022-08-21T06:57:08;100927.91;;;18.41;77.25
19795;BME280;10057;59.402;17.866;2022-08-21T06:59:35;100930.00;;;18.51;77.37
19795;BME280;10057;59.402;17.866;2022-08-21T07:02:02;100931.31;;;18.58;77.13
19795;BME280;10057;59.402;17.866;2022-08-21T07:04:29;100929.16;;;18.63;76.78
19795;BME280;10057;59.402;17.866;2022-08-21T07:06:56;100919.16;;;18.65;76.70
19795;BME280;10057;59.402;17.866;2022-08-21T07:09:22;100926.81;;;18.71;76.70
19795;BME280;10057;59.402;17.866;2022-08-21T07:11:52;100920.19;;;18.77;76.85
19795;BME280;10057;59.402;17.866;2022-08-21T07:14:19;100918.59;;;18.87;76.76
19795;BME280;10057;59.402;17.866;2022-08-21T07:16:47;100922.88;;;18.89;76.13
19795;BME280;10057;59.402;17.866;2022-08-21T07:19:13;100925.78;;;18.86;76.17
19795;BME280;10057;59.402;17.866;2022-08-21T07:21:40;100920.81;;;18.80;75.81
19795;BME280;10057;59.402;17.866;2022-08-21T07:24:07;100924.69;;;18.76;75.88
19795;BME280;10057;59.402;17.866;2022-08-21T07:26:34;100923.75;;;18.77;75.95
19795;BME280;10057;59.402;17.866;2022-08-21T07:29:01;100928.16;;;18.78;75.95
19795;BME280;10057;59.402;17.866;2022-08-21T07:31:27;100924.50;;;18.79;76.18
19795;BME280;10057;59.402;17.866;2022-08-21T07:33:54;100929.44;;;18.85;75.86
19795;BME280;10057;59.402;17.866;2022-08-21T07:36:21;100914.81;;;18.89;75.91
19795;BME280;10057;59.402;17.866;2022-08-21T07:38:48;100918.06;;;18.94;75.78
19795;BME280;10057;59.402;17.866;2022-08-21T07:41:24;100907.97;;;18.98;75.65
19795;BME280;10057;59.402;17.866;2022-08-21T07:43:52;100926.44;;;19.03;75.59
19795;BME280;10057;59.402;17.866;2022-08-21T07:46:19;100925.25;;;19.07;75.64
19795;BME280;10057;59.402;17.866;2022-08-21T07:48:46;100919.59;;;19.11;75.19
19795;BME280;10057;59.402;17.866;2022-08-21T07:51:15;100921.19;;;19.14;74.95
19795;BME280;10057;59.402;17.866;2022-08-21T07:53:48;100915.59;;;19.17;75.04
19795;BME280;10057;59.402;17.866;2022-08-21T07:56:16;100914.41;;;19.21;75.14
19795;BME280;10057;59.402;17.866;2022-08-21T07:58:43;100922.03;;;19.27;74.79
19795;BME280;10057;59.402;17.866;2022-08-21T08:01:10;100919.91;;;19.32;74.61
19795;BME280;10057;59.402;17.866;2022-08-21T08:03:37;100918.91;;;19.33;74.21
19795;BME280;10057;59.402;17.866;2022-08-21T08:06:06;100913.53;;;19.33;73.89
19795;BME280;10057;59.402;17.866;2022-08-21T08:08:37;100913.53;;;19.33;73.73
19795;BME280;10057;59.402;17.866;2022-08-21T08:11:04;100915.25;;;19.34;73.60
19795;BME280;10057;59.402;17.866;2022-08-21T08:13:30;100914.19;;;19.37;73.58
19795;BME280;10057;59.402;17.866;2022-08-21T08:15:57;100912.03;;;19.42;73.75
19795;BME280;10057;59.402;17.866;2022-08-21T08:18:24;100910.72;;;19.48;73.33
19795;BME280;10057;59.402;17.866;2022-08-21T08:20:51;100914.69;;;19.55;73.48
19795;BME280;10057;59.402;17.866;2022-08-21T08:23:18;100909.09;;;19.58;73.33
19795;BME280;10057;59.402;17.866;2022-08-21T08:25:45;100910.50;;;19.63;72.83
19795;BME280;10057;59.402;17.866;2022-08-21T08:28:11;100904.28;;;19.63;72.28
19795;BME280;10057;59.402;17.866;2022-08-21T08:30:44;100905.66;;;19.56;72.25
19795;BME280;10057;59.402;17.866;2022-08-21T08:33:12;100910.50;;;19.51;71.95
19795;BME280;10057;59.402;17.866;2022-08-21T08:35:41;100917.84;;;19.49;72.06
19795;BME280;10057;59.402;17.866;2022-08-21T08:38:08;100916.44;;;19.43;71.96
19795;BME280;10057;59.402;17.866;2022-08-21T08:40:40;100911.91;;;19.44;72.17
19795;BME280;10057;59.402;17.866;2022-08-21T08:43:12;100909.66;;;19.50;71.96
19795;BME280;10057;59.402;17.866;2022-08-21T08:45:43;100910.06;;;19.57;71.98
19795;BME280;10057;59.402;17.866;2022-08-21T08:48:14;100922.66;;;19.69;72.06
19795;BME280;10057;59.402;17.866;2022-08-21T08:50:57;100919.94;;;19.82;71.81
19795;BME280;10057;59.402;17.866;2022-08-21T08:53:44;100921.38;;;19.99;71.68
19795;BME280;10057;59.402;17.866;2022-08-21T08:56:14;100922.56;;;20.07;71.09
19795;BME280;10057;59.402;17.866;2022-08-21T08:58:42;100916.59;;;20.15;70.46
19795;BME280;10057;59.402;17.866;2022-08-21T09:01:16;100923.38;;;20.21;70.17
19795;BME280;10057;59.402;17.866;2022-08-21T09:03:45;100912.47;;;20.22;69.42
19795;BME280;10057;59.402;17.866;2022-08-21T09:09:22;100923.47;;;20.19;69.60
19795;BME280;10057;59.402;17.866;2022-08-21T09:12:06;100919.06;;;20.18;68.99
19795;BME280;10057;59.402;17.866;2022-08-21T09:15:06;100913.66;;;20.18;69.48
19795;BME280;10057;59.402;17.866;2022-08-21T09:17:59;100915.31;;;20.32;69.60
19795;BME280;10057;59.402;17.866;2022-08-21T09:21:07;100913.28;;;20.47;69.44
19795;BME280;10057;59.402;17.866;2022-08-21T09:23:57;100912.63;;;20.56;68.99
19795;BME280;10057;59.402;17.866;2022-08-21T09:29:36;100920.88;;;20.66;68.40
19795;BME280;10057;59.402;17.866;2022-08-21T09:32:11;100919.41;;;20.62;67.88
19795;BME280;10057;59.402;17.866;2022-08-21T09:34:56;100917.78;;;20.59;68.01
19795;BME280;10057;59.402;17.866;2022-08-21T09:37:24;100920.50;;;20.59;67.46
19795;BME280;10057;59.402;17.866;2022-08-21T09:39:51;100925.25;;;20.55;67.63
19795;BME280;10057;59.402;17.866;2022-08-21T09:42:27;100914.47;;;20.55;66.95
19795;BME280;10057;59.402;17.866;2022-08-21T09:45:14;100921.56;;;20.56;67.26
19795;BME280;10057;59.402;17.866;2022-08-21T09:47:41;100920.19;;;20.51;66.51
19795;BME280;10057;59.402;17.866;2022-08-21T09:50:13;100916.00;;;20.47;66.35
19795;BME280;10057;59.402;17.866;2022-08-21T09:53:00;100913.19;;;20.48;66.04
19795;BME280;10057;59.402;17.866;2022-08-21T09:55:39;100900.63;;;20.60;66.21
19795;BME280;10057;59.402;17.866;2022-08-21T09:58:34;100918.06;;;20.67;65.92
19795;BME280;10057;59.402;17.866;2022-08-21T10:01:04;100912.44;;;20.70;65.84
19795;BME280;10057;59.402;17.866;2022-08-21T10:03:31;100922.00;;;20.74;65.82
19795;BME280;10057;59.402;17.866;2022-08-21T10:06:01;100923.22;;;20.81;65.54
19795;BME280;10057;59.402;17.866;2022-08-21T10:08:37;100920.91;;;20.88;65.03
19795;BME280;10057;59.402;17.866;2022-08-21T10:11:10;100929.88;;;20.89;64.39
19795;BME280;10057;59.402;17.866;2022-08-21T10:24:38;100923.84;;;20.74;64.13
19795;BME280;10057;59.402;17.866;2022-08-21T10:29:59;100917.22;;;20.78;63.04
19795;BME280;10057;59.402;17.866;2022-08-21T10:32:41;100919.06;;;20.77;63.30
19795;BME280;10057;59.402;17.866;2022-08-21T10:35:32;100915.16;;;20.81;62.97
19795;BME280;10057;59.402;17.866;2022-08-21T10:47:24;100910.03;;;20.90;62.95
19795;BME280;10057;59.402;17.866;2022-08-21T10:52:53;100914.69;;;20.99;62.16
19795;BME280;10057;59.402;17.866;2022-08-21T10:55:35;100913.34;;;20.93;62.02
19795;BME280;10057;59.402;17.866;2022-08-21T10:58:12;100910.66;;;20.93;62.07
19795;BME280;10057;59.402;17.866;2022-08-21T11:00:51;100911.50;;;20.94;62.26
19795;BME280;10057;59.402;17.866;2022-08-21T11:03:31;100912.25;;;20.96;62.30
19795;BME280;10057;59.402;17.866;2022-08-21T11:06:10;100920.22;;;20.97;62.48
19795;BME280;10057;59.402;17.866;2022-08-21T11:09:03;100925.38;;;21.00;62.68
19795;BME280;10057;59.402;17.866;2022-08-21T11:12:10;100913.59;;;21.01;63.21
19795;BME280;10057;59.402;17.866;2022-08-21T11:18:23;100916.69;;;21.08;63.00
19795;BME280;10057;59.402;17.866;2022-08-21T11:23:57;100913.50;;;21.14;62.10
19795;BME280;10057;59.402;17.866;2022-08-21T11:26:51;100910.31;;;21.20;62.46
19795;BME280;10057;59.402;17.866;2022-08-21T11:29:37;100904.06;;;21.31;62.21
19795;BME280;10057;59.402;17.866;2022-08-21T11:36:07;100912.19;;;21.53;61.79
19795;BME280;10057;59.402;17.866;2022-08-21T11:44:09;100906.31;;;21.71;60.53
19795;BME280;10057;59.402;17.866;2022-08-21T11:46:53;100922.72;;;21.79;59.72
19795;BME280;10057;59.402;17.866;2022-08-21T11:52:35;100921.38;;;21.85;59.42
19795;BME280;10057;59.402;17.866;2022-08-21T11:55:22;100918.66;;;21.96;59.18
19795;BME280;10057;59.402;17.866;2022-08-21T11:58:00;100919.00;;;22.03;58.31
19795;BME280;10057;59.402;17.866;2022-08-21T12:00:33;100923.53;;;22.02;58.34
19795;BME280;10057;59.402;17.866;2022-08-21T12:03:29;100916.16;;;22.04;58.20
19795;BME280;10057;59.402;17.866;2022-08-21T12:06:07;100927.31;;;22.11;58.26
19795;BME280;10057;59.402;17.866;2022-08-21T12:08:45;100927.69;;;22.17;57.87
19795;BME280;10057;59.402;17.866;2022-08-21T12:16:46;100930.88;;;22.22;55.90
19795;BME280;10057;59.402;17.866;2022-08-21T12:19:34;100917.84;;;22.28;55.63
19795;BME280;10057;59.402;17.866;2022-08-21T12:22:13;100927.03;;;22.36;55.50
19795;BME280;10057;59.402;17.866;2022-08-21T12:24:48;100924.94;;;22.40;54.91
19795;BME280;10057;59.402;17.866;2022-08-21T12:27:30;100927.97;;;22.46;54.61
19795;BME280;10057;59.402;17.866;2022-08-21T12:30:34;100925.63;;;22.53;53.96
19795;BME280;10057;59.402;17.866;2022-08-21T12:33:28;100919.22;;;22.54;53.27
19795;BME280;10057;59.402;17.866;2022-08-21T12:36:39;100919.72;;;22.48;52.51
19795;BME280;10057;59.402;17.866;2022-08-21T12:39:13;100925.91;;;22.39;51.50
19795;BME280;10057;59.402;17.866;2022-08-21T12:41:52;100937.25;;;22.33;51.40
19795;BME280;10057;59.402;17.866;2022-08-21T12:44:34;100928.66;;;22.28;50.39
19795;BME280;10057;59.402;17.866;2022-08-21T12:47:05;100928.66;;;22.28;49.96
19795;BME280;10057;59.402;17.866;2022-08-21T12:49:40;100925.50;;;22.22;49.95
19795;BME280;10057;59.402;17.866;2022-08-21T12:52:22;100922.50;;;22.26;49.80
19795;BME280;10057;59.402;17.866;2022-08-21T12:54:49;100932.81;;;22.32;49.56
19795;BME280;10057;59.402;17.866;2022-08-21T12:57:22;100914.88;;;22.31;48.78
19795;BME280;10057;59.402;17.866;2022-08-21T13:00:04;100906.63;;;22.32;49.11
19795;BME280;10057;59.402;17.866;2022-08-21T13:02:37;100905.16;;;22.39;49.53
19795;BME280;10057;59.402;17.866;2022-08-21T13:05:07;100909.25;;;22.55;49.54
19795;BME280;10057;59.402;17.866;2022-08-21T13:07:44;100913.03;;;22.63;49.80
19795;BME280;10057;59.402;17.866;2022-08-21T13:10:25;100910.25;;;22.75;49.68
19795;BME280;10057;59.402;17.866;2022-08-21T13:12:58;100907.47;;;22.86;49.44
19795;BME280;10057;59.402;17.866;2022-08-21T13:15:32;100903.50;;;22.90;49.36
19795;BME280;10057;59.402;17.866;2022-08-21T13:18:01;100908.22;;;22.88;48.74
19795;BME280;10057;59.402;17.866;2022-08-21T13:20:32;100901.81;;;22.89;48.83
19795;BME280;10057;59.402;17.866;2022-08-21T13:23:02;100903.03;;;22.96;48.99
19795;BME280;10057;59.402;17.866;2022-08-21T13:25:34;100901.38;;;23.05;48.89
19795;BME280;10057;59.402;17.866;2022-08-21T13:28:09;100904.41;;;23.11;48.85
19795;BME280;10057;59.402;17.866;2022-08-21T13:30:47;100897.72;;;23.15;49.02
19795;BME280;10057;59.402;17.866;2022-08-21T13:33:16;100895.13;;;23.14;48.09
19795;BME280;10057;59.402;17.866;2022-08-21T13:35:59;100889.69;;;23.04;48.36
19795;BME280;10057;59.402;17.866;2022-08-21T13:38:31;100886.25;;;23.02;48.89
19795;BME280;10057;59.402;17.866;2022-08-21T13:41:04;100893.69;;;23.10;48.86
19795;BME280;10057;59.402;17.866;2022-08-21T13:43:35;100884.78;;;23.19;48.94
19795;BME280;10057;59.402;17.866;2022-08-21T13:46:08;100890.09;;;23.30;48.68
19795;BME280;10057;59.402;17.866;2022-08-21T13:48:36;100893.28;;;23.35;48.42
19795;BME280;10057;59.402;17.866;2022-08-21T13:51:04;100892.84;;;23.40;47.89
19795;BME280;10057;59.402;17.866;2022-08-21T13:53:34;100894.56;;;23.41;47.72
19795;BME280;10057;59.402;17.866;2022-08-21T13:56:02;100893.59;;;23.42;48.15
19795;BME280;10057;59.402;17.866;2022-08-21T13:58:42;100890.72;;;23.44;47.60
19795;BME280;10057;59.402;17.866;2022-08-21T14:03:50;100894.75;;;23.49;47.26
19795;BME280;10057;59.402;17.866;2022-08-21T14:06:22;100889.06;;;23.52;47.40